Nearby METAR Reports

 

KSJC - San Jose, California, USA
Distance from station: NE 14km
Updated: 24/05/2024 11:53
Partly cloudy
Partly cloudy
 Wind from WNW
Wind: WNW 20 km/h, Gust: 31 km/h
Temperature: 18°C
Dew Point: 8°C
Humidity: 52%
Barometer: 1013.5 hPa
Clouds: Partly cloudy
Visibility: 16 km
Cloud details: Few Clouds 1524 m
Few Clouds 2438 m
Partly cloudy 4572 m
2024/05/24 18:53 KSJC 241853Z 29011G17KT 10SM FEW050 FEW080 SCT150 18/08 A2993 RMK AO2 SLP134 VIRGA NE T01830078
KNUQ - Moffett Nas/Mtn, California, USA
Distance from station: N 14km
Updated: 24/05/2024 11:35
Clear
Clear
 Wind from WSW
Wind: WSW 24 km/h, Gust: 37 km/h
Temperature: 15°C
Dew Point: 8°C
Humidity: 63%
Barometer: 1013.9 hPa
Clouds: Clear
Visibility: 11 km
2024/05/24 18:35 KNUQ 241835Z AUTO 24013G20KT 220V280 7SM CLR 15/08 A2994 RMK AO2
 
KPAO - Palo Alto, California, USA
Distance from station: NNW 23km
Updated: 24/05/2024 11:47
Mostly cloudy
Mostly cloudy
 Wind from WNW
Wind: WNW 19 km/h, Gust: 28 km/h
Temperature: 14°C
Dew Point: 8°C
Humidity: 67%
Barometer: 1014.2 hPa
Clouds: Mostly cloudy
Visibility: 16 km
Cloud details: Mostly cloudy 762 m
2024/05/24 18:47 KPAO 241847Z 29010G15KT 10SM BKN025 14/08 A2995
KRHV - San Jose/Reid, California, USA
Distance from station: ENE 19km
Updated: 24/05/2024 10:47
Partly cloudy
Partly cloudy
 Wind from varies
Wind: varies 9 km/h
Temperature: 17°C
Dew Point: 7°C
Humidity: 52%
Barometer: 1013.9 hPa
Clouds: Partly cloudy
Visibility: 16 km
Cloud details: Few Clouds 762 m
Partly cloudy 2438 m
2024/05/24 17:47 KRHV 241747Z VRB05KT 10SM FEW025 SCT080 17/07 A2994
 
KOAK - Oakland, California, USA
Distance from station: NNW 50km
Updated: 24/05/2024 11:53
Overcast
Overcast
 Wind from WSW
Wind: WSW 28 km/h
Temperature: 13°C
Dew Point: 9°C
Humidity: 77%
Barometer: 1013.9 hPa
Clouds: Overcast
Visibility: 16 km
Cloud details: Overcast 488 m
2024/05/24 18:53 KOAK 241853Z 24015KT 10SM OVC016 13/09 A2994 RMK AO2 SLP137 T01280089
KSQL - San Carlos Airpo, California, USA
Distance from station: NW 34km
Updated: 24/05/2024 11:50
Overcast
Overcast
 Wind from WSW
Wind: WSW 26 km/h, Gust: 37 km/h
Temperature: 13°C
Dew Point: 8°C
Humidity: 72%
Barometer: 1014.6 hPa
Clouds: Overcast
Visibility: 16 km
Cloud details: Overcast 488 m
2024/05/24 18:50 KSQL 241850Z 24014G20KT 10SM OVC016 13/08 A2996
 
KSFO - San Francisco, California, USA
Distance from station: NW 49km
Updated: 24/05/2024 10:56
Overcast
Overcast
 Wind from W
Wind: W 26 km/h, Gust: 43 km/h
Temperature: 13°C
Dew Point: 8°C
Humidity: 72%
Barometer: 1013.5 hPa
Clouds: Overcast
Visibility: 16 km
Cloud details: Overcast 427 m
2024/05/24 17:56 KSFO 241756Z 26014G23KT 10SM OVC014 13/08 A2993 RMK AO2 SLP136 T01280078 10128 20111 51006
KE16 - San Martin, California, USA
Distance from station: ESE 43km
Updated: 24/05/2024 11:35
Clear
Clear
 Wind from S
Wind: S 7 km/h
Temperature: 17°C
Dew Point: 7°C
Humidity: 52%
Barometer: 1014.2 hPa
Clouds: Clear
Visibility: 16 km
2024/05/24 18:35 KE16 241835Z AUTO 18004KT 10SM CLR 17/07 A2995 RMK AO2 PWINO PNO
 
KWVI - Watsonville, California, USA
Distance from station: SSE 44km
Updated: 24/05/2024 11:53
Clear
Clear
 Wind from W
Wind: W 22 km/h, Gust: 33 km/h
Temperature: 16°C
Dew Point: 9°C
Humidity: 63%
Barometer: 1014.6 hPa
Clouds: Clear
Visibility: 16 km
2024/05/24 18:53 KWVI 241853Z AUTO 26012G18KT 10SM CLR 16/09 A2996 RMK AO2 SLP145 T01560089
KHAF - Half Moon Bay, California, USA
Distance from station: WNW 50km
Updated: 24/05/2024 11:55
Mist, Overcast
Mist, Overcast
 Wind from WNW
Wind: WNW 20 km/h, Gust: 30 km/h
Temperature: 12°C
Dew Point: 10°C
Humidity: 88%
Barometer: 1014.6 hPa
Summary: Mist
Clouds: Overcast
Visibility: 8 km
Cloud details: Overcast 488 m
2024/05/24 18:55 KHAF 241855Z AUTO 30011G16KT 5SM BR OVC016 12/10 A2996 RMK AO2
 
KHWD - Hayward, California, USA
Distance from station: N 44km
Updated: 24/05/2024 11:54
Overcast
Overcast
 Wind from WSW
Wind: WSW 20 km/h, Gust: 35 km/h
Temperature: 14°C
Dew Point: 8°C
Humidity: 67%
Barometer: 1013.9 hPa
Clouds: Overcast
Visibility: 16 km
Cloud details: Overcast 518 m
2024/05/24 18:54 KHWD 241854Z 24011G19KT 10SM OVC017 14/08 A2994 RMK AO2 SLP150 T01390083
KLVK - Livermore, California, USA
Distance from station: NNE 51km
Updated: 24/05/2024 11:53
Partly cloudy
Partly cloudy
 Wind from W
Wind: W 20 km/h, Gust: 41 km/h
Temperature: 16°C
Dew Point: 7°C
Humidity: 55%
Barometer: 1012.9 hPa
Clouds: Partly cloudy
Visibility: 16 km
Cloud details: Partly cloudy 884 m
2024/05/24 18:53 KLVK 241853Z 26011G22KT 10SM SCT029 16/07 A2991 RMK AO2 SLP125 T01610072